createdAt,value
2017-12-20T00:00:06.132Z,74.30
2017-12-20T00:02:34.597Z,74.40
2017-12-20T00:05:02.975Z,74.40
2017-12-20T00:07:30.637Z,74.40
2017-12-20T00:09:59.827Z,74.50
2017-12-20T00:12:27.492Z,75.20
2017-12-20T00:14:55.105Z,74.40
2017-12-20T00:17:22.687Z,74.50
2017-12-20T00:19:50.375Z,74.50
2017-12-20T00:22:18.043Z,74.50
2017-12-20T00:24:45.708Z,74.60
2017-12-20T00:27:13.372Z,74.60
2017-12-20T00:29:41.027Z,74.70
2017-12-20T00:32:08.706Z,75.40
2017-12-20T00:34:37.083Z,74.90
2017-12-20T00:37:04.677Z,74.90
2017-12-20T00:39:32.367Z,74.90
2017-12-20T00:41:59.943Z,74.80
2017-12-20T00:44:27.571Z,75.60
2017-12-20T00:46:55.184Z,74.80
2017-12-20T00:49:23.663Z,74.80
2017-12-20T00:51:51.344Z,74.80
2017-12-20T00:54:19.817Z,74.80
2017-12-20T00:56:47.537Z,74.70
2017-12-20T00:59:15.236Z,74.70
2017-12-20T01:01:42.899Z,75.50
2017-12-20T01:04:10.559Z,74.70
2017-12-20T01:06:38.225Z,74.70
2017-12-20T01:09:05.888Z,74.80
2017-12-20T01:11:33.557Z,74.70
2017-12-20T01:14:01.222Z,74.60
2017-12-20T01:16:28.886Z,75.10
2017-12-20T01:18:57.260Z,74.70
2017-12-20T01:21:24.848Z,74.70
2017-12-20T01:23:53.296Z,74.50
2017-12-20T01:26:20.969Z,74.50
2017-12-20T01:28:48.633Z,74.40
2017-12-20T01:31:16.215Z,74.40
2017-12-20T01:33:44.663Z,74.40
2017-12-20T01:36:12.328Z,74.30
2017-12-20T01:38:39.941Z,74.30
2017-12-20T01:41:07.551Z,74.30
2017-12-20T01:43:35.221Z,74.30
2017-12-20T01:46:03.659Z,74.40
2017-12-20T01:48:31.369Z,74.60
2017-12-20T01:50:59.028Z,74.40
2017-12-20T01:53:26.627Z,74.40
2017-12-20T01:55:54.245Z,75.40
2017-12-20T01:58:21.841Z,74.30
2017-12-20T02:00:49.447Z,74.30
2017-12-20T02:03:17.049Z,74.40
2017-12-20T02:05:45.424Z,74.30
2017-12-20T02:08:13.771Z,74.30
2017-12-20T02:10:41.447Z,74.30
2017-12-20T02:13:09.793Z,74.30
2017-12-20T02:15:37.399Z,74.30
2017-12-20T02:18:04.984Z,74.30
2017-12-20T02:20:33.428Z,74.30
2017-12-20T02:23:01.020Z,74.30
2017-12-20T02:25:29.376Z,74.60
2017-12-20T02:27:56.994Z,74.60
2017-12-20T02:30:24.600Z,74.60
2017-12-20T02:32:52.266Z,74.60
2017-12-20T02:35:19.855Z,74.50
2017-12-20T02:37:47.493Z,74.60
2017-12-20T02:40:15.139Z,74.70
2017-12-20T02:42:42.811Z,74.60
2017-12-20T02:45:10.396Z,75.50
2017-12-20T02:47:38.774Z,74.60
2017-12-20T02:50:07.128Z,74.50
2017-12-20T02:52:35.527Z,74.60
2017-12-20T02:55:03.997Z,74.60
2017-12-20T02:57:31.657Z,74.50
2017-12-20T02:59:59.315Z,75.20
2017-12-20T03:02:26.895Z,74.60
2017-12-20T03:04:55.355Z,74.60
2017-12-20T03:07:23.016Z,74.60
2017-12-20T03:09:50.684Z,74.50
2017-12-20T03:12:18.264Z,74.50
2017-12-20T03:14:46.727Z,74.70
2017-12-20T03:17:14.307Z,74.60
2017-12-20T03:19:42.767Z,74.70
2017-12-20T03:22:10.432Z,74.70
2017-12-20T03:24:38.087Z,74.70
2017-12-20T03:27:05.668Z,74.70
2017-12-20T03:29:34.024Z,74.50
2017-12-20T03:32:01.705Z,74.50
2017-12-20T03:34:29.300Z,74.40
2017-12-20T03:36:56.907Z,74.10
2017-12-20T03:39:24.501Z,73.90
2017-12-20T03:41:52.987Z,73.60
2017-12-20T03:44:21.444Z,73.50
2017-12-20T03:46:49.108Z,73.30
2017-12-20T03:49:16.768Z,73.10
2017-12-20T03:51:44.436Z,72.90
2017-12-20T03:54:13.524Z,72.70
2017-12-20T03:56:41.157Z,72.70
2017-12-20T03:59:08.847Z,72.80
2017-12-20T04:01:36.427Z,72.80
2017-12-20T04:04:04.074Z,72.70
2017-12-20T04:06:31.668Z,72.60
2017-12-20T04:09:00.048Z,72.30
2017-12-20T04:11:28.499Z,72.40
2017-12-20T04:13:56.972Z,72.40
2017-12-20T04:16:24.561Z,72.50
2017-12-20T04:18:53.033Z,72.70
2017-12-20T04:21:20.683Z,72.60
2017-12-20T04:23:48.357Z,72.60
2017-12-20T04:26:16.008Z,72.70
2017-12-20T04:28:43.595Z,73.20
2017-12-20T04:31:11.967Z,73.00
2017-12-20T04:33:40.320Z,72.90
2017-12-20T04:36:07.992Z,72.90
2017-12-20T04:38:35.575Z,72.90
2017-12-20T04:41:04.035Z,72.90
2017-12-20T04:43:31.616Z,72.90
2017-12-20T04:45:59.979Z,72.90
2017-12-20T04:48:27.566Z,72.90
2017-12-20T04:50:55.951Z,73.20
2017-12-20T04:53:24.313Z,73.00
2017-12-20T04:55:51.948Z,73.00
2017-12-20T04:58:19.624Z,73.00
2017-12-20T05:00:47.236Z,72.90
2017-12-20T05:03:14.815Z,73.00
2017-12-20T05:05:42.503Z,73.10
2017-12-20T05:08:10.103Z,73.90
2017-12-20T05:10:37.690Z,73.00
2017-12-20T05:13:05.396Z,73.00
2017-12-20T05:15:33.771Z,73.30
2017-12-20T05:18:01.435Z,73.30
2017-12-20T05:20:29.100Z,73.50
2017-12-20T05:22:56.749Z,73.60
2017-12-20T05:25:24.359Z,74.40
2017-12-20T05:27:51.984Z,73.50
2017-12-20T05:30:20.360Z,73.90
2017-12-20T05:32:47.967Z,73.90
2017-12-20T05:35:15.587Z,74.20
2017-12-20T05:37:43.257Z,74.70
2017-12-20T05:40:11.736Z,75.30
2017-12-20T05:42:39.353Z,75.30
2017-12-20T05:45:06.960Z,75.60
2017-12-20T05:47:34.620Z,75.80
2017-12-20T05:50:02.284Z,75.90
2017-12-20T05:52:29.943Z,76.60
2017-12-20T05:54:57.556Z,77.00
2017-12-20T05:57:25.177Z,76.30
2017-12-20T05:59:52.833Z,76.30
2017-12-20T06:02:20.491Z,76.40
2017-12-20T06:04:48.156Z,76.40
2017-12-20T06:07:15.819Z,76.40
2017-12-20T06:09:43.426Z,76.40
2017-12-20T06:12:11.017Z,76.30
2017-12-20T06:14:38.708Z,76.20
2017-12-20T06:17:06.367Z,76.20
2017-12-20T06:19:35.460Z,76.30
2017-12-20T06:22:03.953Z,76.50
2017-12-20T06:24:31.540Z,76.40
2017-12-20T06:26:59.983Z,76.40
2017-12-20T06:29:27.661Z,76.40
2017-12-20T06:31:55.273Z,77.10
2017-12-20T06:34:22.876Z,76.20
2017-12-20T06:36:50.519Z,75.80
2017-12-20T06:39:18.112Z,75.40
2017-12-20T06:41:46.491Z,74.80
2017-12-20T06:44:14.102Z,74.70
2017-12-20T06:46:41.711Z,74.50
2017-12-20T06:49:10.079Z,75.10
2017-12-20T06:51:37.737Z,74.30
2017-12-20T06:54:05.404Z,74.30
2017-12-20T06:56:33.068Z,74.30
2017-12-20T06:59:00.740Z,74.40
2017-12-20T07:01:29.099Z,75.50
2017-12-20T07:03:56.707Z,74.70
2017-12-20T07:06:24.437Z,74.70
2017-12-20T07:08:52.109Z,74.80
2017-12-20T07:11:19.760Z,74.80
2017-12-20T07:13:48.244Z,75.20
2017-12-20T07:16:15.916Z,75.10
2017-12-20T07:18:43.523Z,75.50
2017-12-20T07:21:11.149Z,76.10
2017-12-20T07:23:38.895Z,76.10
2017-12-20T07:26:07.271Z,76.70
2017-12-20T07:28:34.931Z,76.70
2017-12-20T07:31:02.602Z,76.90
2017-12-20T07:33:30.197Z,77.30
2017-12-20T07:35:57.803Z,77.60
2017-12-20T07:38:25.388Z,77.90
2017-12-20T07:40:52.996Z,78.10
2017-12-20T07:43:20.618Z,78.30
2017-12-20T07:45:48.267Z,78.30
2017-12-20T07:48:15.848Z,78.50
2017-12-20T07:50:44.312Z,78.40
2017-12-20T07:53:11.895Z,78.30
2017-12-20T07:55:40.267Z,78.30
2017-12-20T07:58:09.352Z,78.30
2017-12-20T08:00:37.020Z,78.30
2017-12-20T08:03:05.395Z,78.00
2017-12-20T08:05:32.985Z,78.60
2017-12-20T08:08:01.430Z,78.70
2017-12-20T08:10:29.808Z,78.80
2017-12-20T08:12:57.407Z,78.80
2017-12-20T08:15:24.995Z,78.90
2017-12-20T08:17:52.700Z,79.10
2017-12-20T08:20:20.361Z,79.20
2017-12-20T08:22:48.020Z,79.30
2017-12-20T08:25:15.688Z,79.30
2017-12-20T08:27:43.297Z,79.20
2017-12-20T08:30:10.911Z,79.20
2017-12-20T08:32:38.581Z,79.00
2017-12-20T08:35:06.241Z,79.00
2017-12-20T08:37:33.905Z,79.00
2017-12-20T08:40:01.569Z,79.00
2017-12-20T08:42:29.156Z,79.00
2017-12-20T08:44:57.528Z,78.80
2017-12-20T08:47:25.872Z,78.80
2017-12-20T08:49:53.539Z,78.70
2017-12-20T08:52:21.212Z,78.70
2017-12-20T08:54:48.825Z,78.50
2017-12-20T08:57:16.403Z,78.40
2017-12-20T08:59:44.092Z,78.30
2017-12-20T09:02:11.756Z,78.40
2017-12-20T09:04:39.416Z,79.30
2017-12-20T09:07:06.996Z,78.30
2017-12-20T09:09:35.465Z,78.30
2017-12-20T09:12:03.047Z,78.30
2017-12-20T09:14:31.499Z,78.50
2017-12-20T09:16:59.106Z,78.40
2017-12-20T09:19:26.692Z,79.30
2017-12-20T09:21:54.400Z,78.50
2017-12-20T09:24:22.052Z,78.40
2017-12-20T09:26:49.665Z,78.50
2017-12-20T09:29:17.272Z,78.50
2017-12-20T09:31:44.882Z,78.40
2017-12-20T09:34:12.473Z,78.20
2017-12-20T09:36:40.103Z,78.30
2017-12-20T09:39:07.729Z,78.40
2017-12-20T09:41:35.346Z,78.30
2017-12-20T09:44:03.052Z,79.20
2017-12-20T09:46:30.668Z,78.40
2017-12-20T09:48:58.271Z,78.40
2017-12-20T09:51:26.000Z,78.50
2017-12-20T09:53:53.699Z,78.40
2017-12-20T09:56:21.359Z,78.30
2017-12-20T09:58:49.024Z,78.30
2017-12-20T10:01:16.687Z,78.40
2017-12-20T10:03:44.301Z,78.40
2017-12-20T10:06:11.976Z,78.40
2017-12-20T10:08:39.685Z,78.20
2017-12-20T10:11:08.039Z,77.90
2017-12-20T10:13:35.666Z,77.80
2017-12-20T10:16:03.250Z,77.50
2017-12-20T10:18:30.940Z,77.30
2017-12-20T10:20:58.613Z,77.20
2017-12-20T10:23:27.715Z,77.10
2017-12-20T10:25:56.177Z,76.90
2017-12-20T10:28:23.911Z,76.90
2017-12-20T10:30:51.520Z,76.80
2017-12-20T10:33:19.883Z,76.80
2017-12-20T10:35:47.547Z,76.80
2017-12-20T10:38:15.136Z,76.60
2017-12-20T10:40:43.587Z,76.50
2017-12-20T10:43:11.255Z,76.40
2017-12-20T10:45:38.860Z,76.20
2017-12-20T10:48:06.459Z,76.20
2017-12-20T10:50:34.044Z,76.10
2017-12-20T10:53:01.696Z,76.00
2017-12-20T10:55:30.088Z,75.90
2017-12-20T10:57:57.760Z,75.90
2017-12-20T11:00:26.228Z,75.70
2017-12-20T11:02:53.849Z,75.70
2017-12-20T11:05:21.457Z,75.60
2017-12-20T11:07:49.804Z,75.70
2017-12-20T11:10:17.486Z,75.70
2017-12-20T11:12:45.068Z,75.60
2017-12-20T11:15:13.518Z,75.60
2017-12-20T11:17:41.104Z,75.60
2017-12-20T11:20:09.575Z,75.40
2017-12-20T11:22:37.235Z,75.40
2017-12-20T11:25:04.830Z,75.30
2017-12-20T11:27:33.175Z,75.60
2017-12-20T11:30:00.793Z,75.50
2017-12-20T11:32:28.409Z,76.40
2017-12-20T11:34:56.884Z,75.30
2017-12-20T11:37:24.471Z,75.30
2017-12-20T11:39:52.815Z,75.40
2017-12-20T11:42:20.415Z,75.40
2017-12-20T11:44:48.759Z,75.40
2017-12-20T11:47:16.363Z,75.40
2017-12-20T11:49:43.957Z,75.40
2017-12-20T11:52:11.572Z,75.30
2017-12-20T11:54:40.037Z,75.40
2017-12-20T11:57:07.635Z,75.30
2017-12-20T11:59:35.247Z,75.40
2017-12-20T12:02:02.921Z,75.50
2017-12-20T12:04:31.301Z,75.60
2017-12-20T12:06:59.692Z,75.50
2017-12-20T12:09:28.056Z,75.50
2017-12-20T12:11:55.713Z,75.50
2017-12-20T12:14:23.330Z,75.50
2017-12-20T12:16:50.944Z,75.60
2017-12-20T12:19:19.415Z,75.80
2017-12-20T12:21:46.999Z,75.80
2017-12-20T12:24:15.467Z,76.00
2017-12-20T12:26:43.137Z,75.90
2017-12-20T12:29:11.612Z,76.20
2017-12-20T12:31:40.703Z,76.30
2017-12-20T12:34:08.387Z,76.30
2017-12-20T12:36:36.727Z,76.30
2017-12-20T12:39:04.312Z,76.30
2017-12-20T12:41:31.908Z,76.30
2017-12-20T12:43:59.541Z,76.30
2017-12-20T12:46:28.012Z,76.30
2017-12-20T12:48:55.644Z,76.20
2017-12-20T12:51:23.405Z,76.20
2017-12-20T12:53:50.999Z,76.20
2017-12-20T12:56:18.660Z,76.20
2017-12-20T12:58:46.249Z,76.10
2017-12-20T13:01:14.628Z,76.40
2017-12-20T13:03:42.977Z,76.30
2017-12-20T13:06:10.651Z,76.40
2017-12-20T13:08:38.255Z,76.50
2017-12-20T13:11:05.876Z,76.60
2017-12-20T13:13:34.244Z,76.80
2017-12-20T13:16:01.916Z,76.80
2017-12-20T13:18:29.528Z,77.00
2017-12-20T13:20:57.112Z,77.00
2017-12-20T13:23:24.795Z,77.10
2017-12-20T13:25:52.462Z,77.40
2017-12-20T13:28:20.133Z,77.60
2017-12-20T13:30:49.286Z,77.80
2017-12-20T13:33:16.993Z,77.80
2017-12-20T13:35:44.579Z,77.70
2017-12-20T13:38:12.927Z,78.00
2017-12-20T13:40:40.588Z,78.00
2017-12-20T13:43:09.676Z,78.10
2017-12-20T13:45:37.348Z,78.10
2017-12-20T13:48:04.940Z,78.20
2017-12-20T13:50:32.570Z,78.20
2017-12-20T13:53:00.231Z,78.40
2017-12-20T13:55:27.860Z,78.30
2017-12-20T13:57:55.559Z,78.30
2017-12-20T14:00:23.224Z,78.30
2017-12-20T14:02:50.815Z,78.30
2017-12-20T14:05:18.404Z,78.40
2017-12-20T14:07:46.012Z,78.50
2017-12-20T14:10:15.108Z,78.50
2017-12-20T14:12:43.479Z,78.40
2017-12-20T14:15:11.076Z,78.40
2017-12-20T14:17:39.447Z,78.50
2017-12-20T14:20:07.907Z,78.50
2017-12-20T14:22:35.567Z,78.50
2017-12-20T14:25:03.161Z,78.50
2017-12-20T14:27:31.540Z,78.50
2017-12-20T14:29:59.904Z,78.60
2017-12-20T14:32:28.367Z,78.50
2017-12-20T14:34:57.568Z,78.40
2017-12-20T14:37:25.163Z,78.40
2017-12-20T14:39:52.776Z,78.40
2017-12-20T14:42:20.451Z,78.50
2017-12-20T14:44:48.115Z,78.50
2017-12-20T14:47:15.844Z,78.70
2017-12-20T14:49:43.543Z,78.70
2017-12-20T14:52:11.132Z,78.80
2017-12-20T14:54:39.503Z,79.00
2017-12-20T14:57:07.968Z,79.20
2017-12-20T14:59:35.628Z,79.20
2017-12-20T15:02:03.293Z,79.30
2017-12-20T15:04:31.770Z,80.30
2017-12-20T15:07:01.016Z,79.50
2017-12-20T15:09:28.636Z,79.50
2017-12-20T15:11:56.291Z,79.60
2017-12-20T15:14:23.959Z,79.60
2017-12-20T15:16:51.571Z,79.70
2017-12-20T15:19:19.151Z,79.80
2017-12-20T15:21:46.765Z,79.90
2017-12-20T15:24:15.227Z,80.00
2017-12-20T15:26:42.888Z,80.00
2017-12-20T15:29:10.479Z,80.00
2017-12-20T15:31:38.847Z,80.10
2017-12-20T15:34:07.199Z,80.00
2017-12-20T15:36:34.877Z,80.00
2017-12-20T15:39:03.223Z,80.10
2017-12-20T15:41:30.907Z,80.10
2017-12-20T15:43:58.585Z,80.00
2017-12-20T15:46:27.055Z,80.20
2017-12-20T15:48:54.640Z,80.20
2017-12-20T15:51:23.015Z,80.30
2017-12-20T15:53:51.479Z,80.30
2017-12-20T15:56:19.083Z,80.30
2017-12-20T15:58:46.703Z,80.20
2017-12-20T16:01:14.334Z,80.20
2017-12-20T16:03:41.920Z,80.20
2017-12-20T16:06:09.518Z,80.20
2017-12-20T16:08:37.890Z,80.40
2017-12-20T16:11:06.347Z,80.50
2017-12-20T16:13:34.021Z,80.40
2017-12-20T16:16:01.607Z,80.60
2017-12-20T16:18:29.263Z,80.60
2017-12-20T16:20:57.619Z,80.80
2017-12-20T16:23:26.000Z,80.90
2017-12-20T16:25:53.592Z,80.80
2017-12-20T16:28:21.219Z,80.90
2017-12-20T16:30:49.604Z,81.10
2017-12-20T16:33:17.224Z,81.20
2017-12-20T16:35:44.981Z,81.20
2017-12-20T16:38:12.587Z,81.40
2017-12-20T16:40:40.172Z,81.40
2017-12-20T16:43:08.523Z,81.50
2017-12-20T16:45:36.136Z,81.40
2017-12-20T16:48:03.757Z,81.70
2017-12-20T16:50:32.949Z,81.90
2017-12-20T16:53:00.543Z,81.90
2017-12-20T16:55:28.998Z,82.00
2017-12-20T16:57:57.381Z,82.10
2017-12-20T17:00:25.851Z,82.90
2017-12-20T17:02:53.514Z,82.10
2017-12-20T17:05:21.139Z,82.20
2017-12-20T17:07:48.720Z,82.40
2017-12-20T17:10:16.399Z,82.50
2017-12-20T17:12:44.047Z,82.50
2017-12-20T17:15:11.659Z,82.50
2017-12-20T17:17:40.018Z,82.40
2017-12-20T17:20:08.387Z,82.40
2017-12-20T17:22:35.973Z,82.40
2017-12-20T17:25:04.347Z,82.30
2017-12-20T17:27:32.807Z,82.50
2017-12-20T17:30:00.399Z,82.30
2017-12-20T17:32:28.017Z,82.30
2017-12-20T17:34:55.688Z,82.20
2017-12-20T17:37:23.304Z,82.10
2017-12-20T17:39:50.915Z,82.10
2017-12-20T17:42:18.576Z,82.00
2017-12-20T17:44:46.172Z,82.00
2017-12-20T17:47:14.619Z,82.20
2017-12-20T17:49:42.279Z,82.10
2017-12-20T17:52:10.010Z,82.20
2017-12-20T17:54:37.588Z,82.10
2017-12-20T17:57:05.268Z,82.30
2017-12-20T17:59:32.864Z,82.40
2017-12-20T18:02:01.248Z,82.50
2017-12-20T18:04:29.614Z,82.50
2017-12-20T18:06:57.968Z,82.40
2017-12-20T18:09:25.575Z,82.40
2017-12-20T18:11:53.194Z,82.40
2017-12-20T18:14:20.856Z,82.40
2017-12-20T18:16:48.449Z,82.40
2017-12-20T18:19:16.904Z,82.60
2017-12-20T18:21:45.252Z,82.60
2017-12-20T18:24:12.948Z,82.60
2017-12-20T18:26:40.531Z,82.70
2017-12-20T18:29:08.903Z,82.90
2017-12-20T18:31:37.251Z,82.90
2017-12-20T18:34:04.859Z,82.90
2017-12-20T18:36:32.440Z,83.00
2017-12-20T18:39:00.063Z,83.00
2017-12-20T18:41:28.418Z,83.10
2017-12-20T18:43:56.092Z,83.10
2017-12-20T18:46:24.628Z,83.80
2017-12-20T18:48:52.207Z,83.80
2017-12-20T18:51:20.424Z,83.60
2017-12-20T18:53:48.776Z,84.00
2017-12-20T18:56:16.383Z,83.20
2017-12-20T18:58:44.828Z,83.20
2017-12-20T19:01:12.484Z,83.10
2017-12-20T19:03:40.147Z,83.10
2017-12-20T19:06:07.815Z,83.10
2017-12-20T19:08:36.195Z,83.20
2017-12-20T19:11:03.852Z,83.20
2017-12-20T19:13:31.448Z,83.30
2017-12-20T19:15:59.849Z,83.40
2017-12-20T19:18:27.431Z,83.30
2017-12-20T19:20:55.021Z,83.30
2017-12-20T19:23:22.683Z,83.30
2017-12-20T19:25:50.348Z,83.20
2017-12-20T19:28:18.007Z,83.20
2017-12-20T19:30:45.674Z,83.20
2017-12-20T19:33:13.288Z,83.10
2017-12-20T19:35:40.895Z,83.20
2017-12-20T19:38:08.499Z,83.40
2017-12-20T19:40:36.124Z,83.40
2017-12-20T19:43:04.496Z,83.50
2017-12-20T19:45:32.125Z,83.50
2017-12-20T19:47:59.737Z,83.50
2017-12-20T19:50:28.087Z,84.20
2017-12-20T19:52:55.747Z,83.40
2017-12-20T19:55:23.340Z,83.50
2017-12-20T19:57:51.687Z,84.40
2017-12-20T20:00:19.386Z,83.50
2017-12-20T20:02:47.746Z,83.50
2017-12-20T20:05:15.353Z,83.50
2017-12-20T20:07:42.936Z,83.30
2017-12-20T20:10:10.648Z,83.20
2017-12-20T20:12:39.107Z,83.10
2017-12-20T20:15:06.776Z,83.00
2017-12-20T20:17:35.155Z,82.90
2017-12-20T20:20:02.820Z,82.90
2017-12-20T20:22:30.489Z,82.80
2017-12-20T20:24:58.861Z,82.80
2017-12-20T20:27:26.439Z,82.80
2017-12-20T20:29:54.907Z,82.80
2017-12-20T20:32:22.567Z,82.80
2017-12-20T20:34:50.147Z,82.80
2017-12-20T20:37:18.603Z,83.70
2017-12-20T20:39:46.192Z,82.90
2017-12-20T20:42:14.566Z,82.90
2017-12-20T20:44:42.914Z,83.80
2017-12-20T20:47:10.523Z,82.90
2017-12-20T20:49:38.872Z,83.00
2017-12-20T20:52:07.240Z,82.90
2017-12-20T20:54:34.823Z,82.90
2017-12-20T20:57:03.288Z,83.80
2017-12-20T20:59:30.867Z,82.80
2017-12-20T21:01:59.341Z,83.60
2017-12-20T21:04:28.436Z,82.80
2017-12-20T21:06:57.594Z,82.80
2017-12-20T21:09:25.184Z,82.70
2017-12-20T21:11:52.835Z,82.80
2017-12-20T21:14:20.427Z,82.90
2017-12-20T21:16:48.077Z,82.80
2017-12-20T21:19:16.451Z,82.70
2017-12-20T21:21:44.115Z,82.80
2017-12-20T21:24:11.724Z,82.80
2017-12-20T21:26:39.308Z,82.70
2017-12-20T21:29:06.921Z,82.60
2017-12-20T21:31:35.384Z,82.60
2017-12-20T21:34:03.864Z,82.70
2017-12-20T21:36:32.211Z,82.80
2017-12-20T21:38:59.913Z,82.70
2017-12-20T21:41:28.995Z,82.70
2017-12-20T21:43:56.732Z,82.60
2017-12-20T21:46:24.329Z,82.60
2017-12-20T21:48:53.527Z,82.90
2017-12-20T21:51:21.258Z,82.80
2017-12-20T21:53:49.571Z,83.50
2017-12-20T21:56:18.679Z,83.80
2017-12-20T21:58:46.259Z,83.70
2017-12-20T22:01:14.712Z,84.30
2017-12-20T22:03:43.087Z,84.40
2017-12-20T22:06:10.752Z,84.30
2017-12-20T22:08:38.411Z,84.50
2017-12-20T22:11:06.011Z,84.40
2017-12-20T22:13:34.455Z,84.30
2017-12-20T22:16:02.120Z,84.30
2017-12-20T22:18:30.505Z,84.50
2017-12-20T22:20:58.984Z,84.50
2017-12-20T22:23:28.175Z,84.50
2017-12-20T22:25:55.839Z,84.50
2017-12-20T22:28:23.508Z,84.60
2017-12-20T22:30:52.706Z,84.60
2017-12-20T22:33:21.079Z,84.50
2017-12-20T22:35:48.748Z,84.50
2017-12-20T22:38:17.851Z,84.30
2017-12-20T22:40:46.930Z,84.00
2017-12-20T22:43:15.291Z,84.10
2017-12-20T22:45:42.877Z,84.10
2017-12-20T22:48:11.987Z,84.10
2017-12-20T22:50:39.649Z,84.00
2017-12-20T22:53:07.262Z,84.60
2017-12-20T22:55:34.843Z,84.40
2017-12-20T22:58:02.450Z,84.30
2017-12-20T23:00:32.586Z,85.30
2017-12-20T23:03:00.203Z,84.40
2017-12-20T23:05:27.788Z,84.40
2017-12-20T23:07:56.243Z,84.50
2017-12-20T23:10:23.811Z,84.40
2017-12-20T23:12:52.178Z,84.60
2017-12-20T23:15:19.847Z,84.50
2017-12-20T23:17:47.448Z,84.70
2017-12-20T23:20:15.023Z,84.70
2017-12-20T23:22:42.737Z,84.80
2017-12-20T23:25:11.107Z,84.80
2017-12-20T23:27:38.679Z,84.90
2017-12-20T23:30:06.281Z,84.70
2017-12-20T23:32:33.900Z,84.80
2017-12-20T23:35:02.375Z,84.60
2017-12-20T23:37:30.044Z,85.40
2017-12-20T23:39:57.709Z,84.40
2017-12-20T23:42:25.288Z,84.40
2017-12-20T23:44:53.753Z,84.30
2017-12-20T23:47:22.095Z,84.30
2017-12-20T23:49:49.787Z,84.20
2017-12-20T23:52:17.372Z,84.30
2017-12-20T23:54:45.827Z,84.40
2017-12-20T23:57:13.402Z,84.40
2017-12-20T23:59:40.999Z,84.50
